Time;durP1;ratioP1;P1;durP2;ratioP2;P2;SDS_P1;SDS_P2;PMS_P1;PMS_P2;Temp;Humidity;BMP_temperature;BMP_pressure;BME280_temperature;BME280_humidity;BME280_pressure;Samples;Min_cycle;Max_cycle;Signal;HPM_P1;HPM_P2
2022/03/16 00:00:01;;;;;;;84.28;45.60;;;;;;;5.86;91.26;99412.31;2073648;28;20208;-71
2022/03/16 00:01:04;;;;;;;79.82;44.38;;;;;;;5.86;91.23;99407.03;2067329;28;20262;-71
2022/03/16 00:02:08;;;;;;;80.93;45.53;;;;;;;5.85;91.12;99416.03;2073685;28;20615;-70
2022/03/16 00:03:13;;;;;;;80.88;44.53;;;;;;;5.84;91.15;99406.50;2074281;28;20261;-71
2022/03/16 00:04:15;;;;;;;76.53;43.08;;;;;;;5.84;91.54;99411.78;2074580;28;20177;-70
2022/03/16 00:05:23;;;;;;;94.75;45.78;;;;;;;5.84;91.84;99414.44;2073347;28;20233;-70
2022/03/16 00:06:27;;;;;;;83.82;43.40;;;;;;;5.82;91.73;99414.69;2073294;28;20228;-70
2022/03/16 00:07:31;;;;;;;83.00;43.95;;;;;;;5.81;91.91;99409.63;2074242;28;20215;-71
2022/03/16 00:08:36;;;;;;;75.25;43.90;;;;;;;5.81;92.50;99409.63;2073270;28;20258;-70
2022/03/16 00:09:44;;;;;;;80.95;45.10;;;;;;;5.78;93.71;99405.66;2065940;28;20197;-70
2022/03/16 00:10:46;;;;;;;75.35;44.00;;;;;;;5.75;94.41;99402.72;2066573;28;20296;-70
2022/03/16 00:11:48;;;;;;;81.55;44.28;;;;;;;5.73;95.17;99395.03;2073707;28;20200;-70
2022/03/16 00:12:55;;;;;;;79.20;44.90;;;;;;;5.72;95.62;99392.63;2074184;28;20630;-71
2022/03/16 00:13:58;;;;;;;85.30;44.90;;;;;;;5.71;96.70;99391.03;2073663;28;20200;-70
2022/03/16 00:15:03;;;;;;;78.30;45.40;;;;;;;5.71;96.93;99396.34;2073514;28;20204;-71
2022/03/16 00:16:11;;;;;;;84.72;45.33;;;;;;;5.70;97.52;99397.41;2073693;28;20208;-70
2022/03/16 00:17:18;;;;;;;78.00;44.90;;;;;;;5.67;97.06;99394.22;2073117;28;20207;-71
2022/03/16 00:18:22;;;;;;;89.35;45.35;;;;;;;5.67;97.45;99402.16;2073231;28;20296;-70
2022/03/16 00:19:25;;;;;;;89.83;45.43;;;;;;;5.68;97.55;99400.31;2073724;28;20192;-71
2022/03/16 00:20:28;;;;;;;79.65;44.28;;;;;;;5.68;97.28;99393.16;2073761;28;20487;-70
2022/03/16 00:21:40;;;;;;;81.55;46.85;;;;;;;5.68;96.83;99397.66;2073314;28;20228;-70
2022/03/16 00:22:44;;;;;;;83.63;44.25;;;;;;;5.68;96.66;99390.50;2066554;28;20209;-70
2022/03/16 00:23:48;;;;;;;77.03;45.15;;;;;;;5.67;96.38;99394.22;2073582;28;20613;-70
2022/03/16 00:24:52;;;;;;;83.22;44.80;;;;;;;5.70;96.30;99400.03;2066044;28;20553;-70
2022/03/16 00:25:54;;;;;;;90.45;46.15;;;;;;;5.69;96.63;99386.00;2073582;28;20196;-70
2022/03/16 00:26:56;;;;;;;85.65;46.85;;;;;;;5.68;96.40;99392.38;2074309;28;20192;-70
2022/03/16 00:27:59;;;;;;;83.97;44.95;;;;;;;5.71;96.14;99393.69;2074255;28;20188;-70
2022/03/16 00:29:01;;;;;;;79.68;45.33;;;;;;;5.71;96.07;99385.75;2073118;28;20235;-70
2022/03/16 00:30:04;;;;;;;82.78;44.72;;;;;;;5.73;95.89;99395.03;2073173;28;20553;-70
2022/03/16 00:31:07;;;;;;;87.70;45.47;;;;;;;5.73;95.43;99388.94;2081618;28;20294;-70
2022/03/16 00:32:16;;;;;;;85.90;45.72;;;;;;;5.73;96.00;99391.59;2073419;28;20193;-70
2022/03/16 00:33:18;;;;;;;77.70;45.17;;;;;;;5.73;95.95;99391.59;2073913;28;20706;-70
2022/03/16 00:34:20;;;;;;;82.47;46.63;;;;;;;5.74;96.29;99393.19;2073695;28;20315;-71
2022/03/16 00:35:23;;;;;;;87.50;46.83;;;;;;;5.71;96.38;99385.75;2073390;28;20211;-70
2022/03/16 00:36:25;;;;;;;82.95;46.53;;;;;;;5.72;96.34;99384.69;2072963;28;20718;-70
2022/03/16 00:37:28;;;;;;;84.07;45.05;;;;;;;5.71;96.25;99391.03;2074152;28;20188;-70
2022/03/16 00:38:36;;;;;;;91.97;46.92;;;;;;;5.68;96.03;99382.56;2073396;28;20254;-70
2022/03/16 00:39:43;;;;;;;82.43;45.05;;;;;;;5.71;95.76;99389.19;2073364;28;20212;-70
2022/03/16 00:40:51;;;;;;;90.25;46.58;;;;;;;5.69;95.50;99383.38;2066211;28;20205;-70
2022/03/16 00:41:58;;;;;;;79.82;46.83;;;;;;;5.70;95.23;99387.59;2072978;28;20208;-71
2022/03/16 00:43:00;;;;;;;81.80;46.35;;;;;;;5.70;94.91;99384.16;2073611;28;20185;-70
2022/03/16 00:44:03;;;;;;;79.32;46.45;;;;;;;5.71;94.50;99391.03;2073357;28;20211;-70
2022/03/16 00:45:07;;;;;;;81.78;45.78;;;;;;;5.72;93.82;99390.00;2065599;28;20663;-70
2022/03/16 00:46:15;;;;;;;88.57;47.05;;;;;;;5.73;93.90;99396.88;2073588;28;20231;-70
2022/03/16 00:47:19;;;;;;;86.55;45.75;;;;;;;5.72;93.86;99390.00;2080759;28;20190;-70
2022/03/16 00:48:30;;;;;;;77.88;45.78;;;;;;;5.67;94.25;99380.97;2074258;28;20212;-71
2022/03/16 00:49:32;;;;;;;86.25;45.45;;;;;;;5.68;94.82;99387.06;2073037;28;20361;-70
2022/03/16 00:50:36;;;;;;;82.45;46.17;;;;;;;5.65;94.65;99382.28;2073495;28;20196;-71
2022/03/16 00:51:38;;;;;;;80.28;44.28;;;;;;;5.65;95.35;99379.66;2072704;28;20228;-70
2022/03/16 00:52:46;;;;;;;86.05;46.72;;;;;;;5.64;95.41;99370.09;2065861;28;20200;-70
2022/03/16 00:53:53;;;;;;;82.43;45.92;;;;;;;5.62;95.42;99375.66;2066822;28;20599;-70
2022/03/16 00:55:00;;;;;;;78.85;44.33;;;;;;;5.62;95.28;99375.66;2065977;28;20212;-70
2022/03/16 00:56:05;;;;;;;84.25;45.97;;;;;;;5.59;95.79;99362.94;2066118;28;20252;-70
2022/03/16 00:57:08;;;;;;;92.60;45.95;;;;;;;5.61;96.23;99371.41;2073372;28;20531;-71
2022/03/16 00:58:13;;;;;;;81.28;46.35;;;;;;;5.58;96.70;99371.94;2073318;28;20224;-70
2022/03/16 00:59:18;;;;;;;80.90;45.95;;;;;;;5.58;97.17;99366.63;2073337;28;20196;-70
2022/03/16 01:00:26;;;;;;;86.93;45.92;;;;;;;5.57;96.82;99365.03;2073851;28;20208;-70
2022/03/16 01:01:31;;;;;;;84.03;45.90;;;;;;;5.57;96.12;99375.63;2066348;28;20734;-70
2022/03/16 01:02:41;;;;;;;78.10;44.95;;;;;;;5.57;96.09;99372.97;2073243;28;20255;-70
2022/03/16 01:03:45;;;;;;;85.88;44.97;;;;;;;5.57;95.36;99372.97;2073463;28;20176;-70
2022/03/16 01:04:50;;;;;;;79.53;44.90;;;;;;;5.56;95.45;99376.69;2073189;28;20607;-70
2022/03/16 01:05:52;;;;;;;75.47;44.72;;;;;;;5.56;95.31;99379.34;2072894;28;20196;-70
2022/03/16 01:06:57;;;;;;;78.57;45.13;;;;;;;5.54;95.23;99370.81;2073288;28;20176;-70
2022/03/16 01:08:09;;;;;;;88.50;46.60;;;;;;;5.53;96.13;99369.22;2074029;28;20769;-69
2022/03/16 01:09:16;;;;;;;85.43;46.45;;;;;;;5.53;97.48;99369.22;2080668;28;20626;-71
2022/03/16 01:10:22;;;;;;;80.57;45.35;;;;;;;5.52;97.91;99365.00;2073990;28;20203;-70
2022/03/16 01:11:27;;;;;;;79.05;45.65;;;;;;;5.53;97.62;99363.94;2072723;28;20196;-70
2022/03/16 01:12:30;;;;;;;80.88;45.92;;;;;;;5.52;97.49;99357.06;2073341;28;20725;-70
2022/03/16 01:13:35;;;;;;;79.25;45.08;;;;;;;5.51;97.80;99359.97;2072757;28;20243;-70
2022/03/16 01:14:42;;;;;;;84.57;47.35;;;;;;;5.52;98.04;99354.41;2073295;28;20620;-70
2022/03/16 01:15:53;;;;;;;83.40;49.60;;;;;;;5.53;96.12;99358.66;2073941;28;20196;-70
2022/03/16 01:16:59;;;;;;;81.05;46.50;;;;;;;5.68;94.02;99360.59;2073167;28;20259;-70
2022/03/16 01:18:06;;;;;;;80.90;47.67;;;;;;;5.80;91.42;99368.34;2065888;28;20291;-70
2022/03/16 01:19:12;;;;;;;84.68;47.30;;;;;;;6.00;91.45;99363.19;2073776;28;20237;-70
2022/03/16 01:20:15;;;;;;;78.70;45.15;;;;;;;6.09;91.47;99363.50;2080963;28;20263;-70
2022/03/16 01:21:17;;;;;;;84.18;46.47;;;;;;;6.09;91.70;99360.84;2080836;28;20257;-71
2022/03/16 01:22:26;;;;;;;91.57;47.45;;;;;;;6.05;92.21;99357.88;2072856;28;20322;-71
2022/03/16 01:23:37;;;;;;;87.15;47.08;;;;;;;6.01;92.23;99356.84;2067286;28;20251;-70
2022/03/16 01:24:41;;;;;;;85.63;46.17;;;;;;;5.98;92.73;99354.69;2073504;28;20215;-71
2022/03/16 01:25:44;;;;;;;81.75;46.05;;;;;;;5.98;93.01;99361.81;2065100;28;20208;-71
2022/03/16 01:26:48;;;;;;;74.63;44.42;;;;;;;5.95;93.27;99363.94;2073193;28;20283;-71
2022/03/16 01:27:49;;;;;;;84.95;48.08;;;;;;;5.95;92.98;99365.78;2073578;28;20294;-70
2022/03/16 01:28:54;;;;;;;88.33;48.00;;;;;;;5.94;93.76;99364.22;2073223;28;20242;-70
2022/03/16 01:29:58;;;;;;;77.55;46.50;;;;;;;5.90;94.65;99363.09;2073415;28;20208;-70
2022/03/16 01:31:03;;;;;;;84.03;47.13;;;;;;;5.90;95.72;99357.78;2073350;28;20188;-70
2022/03/16 01:32:09;;;;;;;79.75;46.47;;;;;;;5.86;97.60;99348.78;2073147;28;20212;-70
2022/03/16 01:33:18;;;;;;;87.15;47.08;;;;;;;5.82;98.93;99350.31;2065836;28;20221;-70
2022/03/16 01:34:28;;;;;;;79.97;45.85;;;;;;;5.76;99.79;99351.38;2066119;28;20196;-70
2022/03/16 01:35:32;;;;;;;81.50;47.75;;;;;;;5.67;99.93;99343.91;2073552;28;20537;-70
2022/03/16 01:36:40;;;;;;;92.20;51.38;;;;;;;5.68;97.44;99344.72;2072705;28;20235;-70
2022/03/16 01:37:45;;;;;;;89.20;50.17;;;;;;;5.62;96.34;99351.81;2073251;28;20211;-70
2022/03/16 01:38:54;;;;;;;84.03;49.55;;;;;;;5.60;95.17;99346.00;2073517;28;20204;-70
2022/03/16 01:40:01;;;;;;;83.15;49.15;;;;;;;5.59;94.15;99352.34;2066308;28;20205;-70
2022/03/16 01:41:11;;;;;;;88.03;47.42;;;;;;;5.64;93.63;99347.06;2073849;28;20204;-70
2022/03/16 01:42:15;;;;;;;89.75;47.95;;;;;;;5.68;94.69;99344.72;2080743;28;20514;-71
2022/03/16 01:43:24;;;;;;;88.18;47.53;;;;;;;5.67;94.72;99338.63;2074039;28;20194;-70
2022/03/16 01:44:49;;;;;;;84.53;46.60;;;;;;;5.71;95.36;99341.53;2073368;28;20207;-70
2022/03/16 01:45:56;;;;;;;83.68;46.38;;;;;;;5.74;95.26;99337.59;2073108;28;20310;-70
2022/03/16 01:47:02;;;;;;;80.70;46.85;;;;;;;5.75;95.01;99347.13;2073516;28;20176;-70
2022/03/16 01:48:04;;;;;;;80.53;46.53;;;;;;;5.76;95.08;99346.09;2073195;28;20572;-71
2022/03/16 01:49:08;;;;;;;82.28;46.03;;;;;;;5.75;94.56;99344.50;2073186;28;20575;-70
2022/03/16 01:50:14;;;;;;;93.55;48.83;;;;;;;5.76;95.05;99341.59;2072680;28;20242;-70
2022/03/16 01:51:24;;;;;;;84.93;46.03;;;;;;;5.75;95.21;99328.59;2072982;28;20235;-70
2022/03/16 01:52:33;;;;;;;80.15;47.10;;;;;;;5.76;95.68;99328.34;2073334;28;20235;-70
2022/03/16 01:53:37;;;;;;;78.38;45.75;;;;;;;5.80;95.85;99321.47;2073844;28;20200;-71
2022/03/16 01:54:44;;;;;;;76.97;46.17;;;;;;;5.80;95.76;99318.03;2065517;28;20211;-70
2022/03/16 01:55:48;;;;;;;82.28;46.42;;;;;;;5.76;95.97;99320.41;2073293;28;20169;-70
2022/03/16 01:56:51;;;;;;;80.90;46.35;;;;;;;5.79;96.67;99340.25;2073059;28;20216;-70
2022/03/16 01:57:59;;;;;;;83.05;45.88;;;;;;;5.73;96.91;99336.00;2073067;28;20637;-70
2022/03/16 01:59:04;;;;;;;78.47;46.38;;;;;;;5.76;97.24;99335.50;2075090;28;20212;-70
2022/03/16 02:00:13;;;;;;;82.93;47.65;;;;;;;5.80;98.61;99341.84;2074746;28;20625;-70
2022/03/16 02:01:21;;;;;;;79.68;46.67;;;;;;;5.72;99.25;99337.03;2067751;28;20208;-70
2022/03/16 02:02:25;;;;;;;85.15;47.13;;;;;;;5.66;99.94;99334.38;2067024;28;20209;-70
2022/03/16 02:03:27;;;;;;;81.85;47.20;;;;;;;5.63;100.00;99334.88;2067158;28;20201;-70
2022/03/16 02:04:37;;;;;;;86.03;47.15;;;;;;;5.63;100.00;99331.44;2074550;28;20584;-70
2022/03/16 02:05:44;;;;;;;83.97;47.88;;;;;;;5.60;100.00;99335.41;2074912;28;20218;-70
2022/03/16 02:06:54;;;;;;;82.78;46.80;;;;;;;5.55;100.00;99329.28;2075100;28;20287;-70
2022/03/16 02:08:03;;;;;;;84.65;47.25;;;;;;;5.49;100.00;99333.75;2075569;28;20616;-70
2022/03/16 02:09:05;;;;;;;82.28;47.35;;;;;;;5.46;100.00;99325.53;2074448;28;20203;-70
2022/03/16 02:10:10;;;;;;;87.50;47.90;;;;;;;5.41;100.00;99328.16;2074630;28;20195;-70
2022/03/16 02:11:16;;;;;;;89.65;48.13;;;;;;;5.38;100.00;99321.50;2075289;28;20631;-70
2022/03/16 02:12:23;;;;;;;88.72;49.58;;;;;;;5.32;100.00;99320.69;2075266;28;20291;-70
2022/03/16 02:13:27;;;;;;;79.72;46.63;;;;;;;5.30;100.00;99322.81;2074833;28;20180;-70
2022/03/16 02:14:39;;;;;;;84.45;47.00;;;;;;;5.28;100.00;99322.22;2075120;28;20659;-70
2022/03/16 02:15:42;;;;;;;80.97;45.75;;;;;;;5.26;100.00;99323.53;2075257;28;20189;-70
2022/03/16 02:16:45;;;;;;;81.70;46.35;;;;;;;5.26;100.00;99324.34;2075050;28;20207;-70
2022/03/16 02:17:45;;;;;;;86.30;48.40;;;;;;;5.24;100.00;99323.00;2074994;28;20201;-70
2022/03/16 02:18:50;;;;;;;85.03;49.00;;;;;;;5.23;100.00;99324.06;2074397;28;20211;-70
2022/03/16 02:19:53;;;;;;;84.40;46.28;;;;;;;5.21;100.00;99324.31;2074497;28;20990;-70
2022/03/16 02:20:59;;;;;;;80.40;48.22;;;;;;;5.19;100.00;99325.59;2073610;28;20565;-70
2022/03/16 02:22:13;;;;;;;86.28;47.75;;;;;;;5.17;100.00;99325.88;2067324;28;20197;-71
2022/03/16 02:23:23;;;;;;;85.65;47.55;;;;;;;5.15;100.00;99320.03;2074305;28;20239;-70
2022/03/16 02:24:25;;;;;;;82.60;47.22;;;;;;;5.14;100.00;99317.66;2074124;28;20204;-70
2022/03/16 02:25:28;;;;;;;84.75;47.88;;;;;;;5.14;100.00;99325.59;2074525;28;20675;-70
2022/03/16 02:26:30;;;;;;;75.65;47.15;;;;;;;5.13;100.00;99321.34;2075201;28;20678;-70
2022/03/16 02:27:39;;;;;;;83.72;47.97;;;;;;;5.09;100.00;99313.13;2074987;28;20192;-70
2022/03/16 02:28:43;;;;;;;86.28;47.15;;;;;;;5.05;100.00;99315.47;2075044;28;20291;-70
2022/03/16 02:29:46;;;;;;;84.85;46.35;;;;;;;5.04;100.00;99310.44;2074055;28;20617;-70
2022/03/16 02:30:50;;;;;;;88.07;48.40;;;;;;;5.01;100.00;99314.38;2075173;28;20211;-70
2022/03/16 02:31:52;;;;;;;84.55;48.65;;;;;;;4.99;100.00;99316.47;2082625;28;20183;-70
2022/03/16 02:32:57;;;;;;;81.32;47.80;;;;;;;4.99;100.00;99316.47;2074557;28;20235;-70
2022/03/16 02:34:02;;;;;;;88.70;48.35;;;;;;;4.97;100.00;99323.06;2074741;28;20200;-70
2022/03/16 02:35:12;;;;;;;93.10;48.75;;;;;;;4.98;100.00;99324.66;2074333;28;20197;-70
2022/03/16 02:36:20;;;;;;;93.78;48.38;;;;;;;4.97;100.00;99323.06;2074650;28;20231;-70
2022/03/16 02:37:26;;;;;;;85.95;48.17;;;;;;;4.98;100.00;99320.19;2073697;28;20228;-70
2022/03/16 02:38:31;;;;;;;87.68;48.30;;;;;;;4.99;100.00;99321.78;2074898;28;20224;-70
2022/03/16 02:39:36;;;;;;;93.35;49.38;;;;;;;4.98;100.00;99317.53;2075013;28;20630;-70
2022/03/16 02:40:38;;;;;;;86.53;48.17;;;;;;;5.00;100.00;99333.94;2075096;28;20606;-71
2022/03/16 02:41:47;;;;;;;89.95;49.80;;;;;;;4.98;100.00;99336.03;2074090;28;20239;-70
2022/03/16 02:42:55;;;;;;;84.28;46.97;;;;;;;4.99;100.00;99326.25;2075150;28;20208;-71
2022/03/16 02:44:03;;;;;;;83.05;48.05;;;;;;;5.00;100.00;99326.00;2074253;28;20247;-70
2022/03/16 02:45:07;;;;;;;94.32;49.38;;;;;;;5.01;100.00;99324.94;2074561;28;20667;-70
2022/03/16 02:46:11;;;;;;;93.72;47.70;;;;;;;5.01;100.00;99322.31;2074366;28;20208;-70
2022/03/16 02:47:17;;;;;;;86.10;48.42;;;;;;;5.01;100.00;99314.38;2074962;28;20216;-70
2022/03/16 02:48:25;;;;;;;84.15;47.90;;;;;;;5.01;100.00;99324.16;2075097;28;20271;-71
2022/03/16 02:49:36;;;;;;;90.40;49.40;;;;;;;5.00;100.00;99320.72;2074825;28;20561;-70
2022/03/16 02:50:41;;;;;;;92.57;48.65;;;;;;;5.00;100.00;99318.06;2075015;28;20634;-70
2022/03/16 02:51:46;;;;;;;82.30;48.33;;;;;;;5.02;100.00;99331.03;2073347;28;20695;-70
2022/03/16 02:52:51;;;;;;;83.60;48.50;;;;;;;5.02;100.00;99334.47;2074086;28;20205;-70
2022/03/16 02:53:53;;;;;;;89.38;48.85;;;;;;;5.04;100.00;99339.53;2074444;28;20192;-70
2022/03/16 02:54:58;;;;;;;87.93;50.72;;;;;;;5.05;100.00;99347.22;2074853;28;20670;-70
2022/03/16 02:56:03;;;;;;;95.55;49.60;;;;;;;5.07;100.00;99342.47;2073671;28;20703;-70
2022/03/16 02:57:13;;;;;;;88.32;50.05;;;;;;;5.05;100.00;99341.91;2073990;28;20372;-70
2022/03/16 02:58:18;;;;;;;86.78;48.78;;;;;;;5.04;100.00;99345.63;2067955;28;20243;-71
2022/03/16 02:59:23;;;;;;;86.85;49.45;;;;;;;5.05;100.00;99352.50;2074374;28;20192;-70
2022/03/16 03:00:26;;;;;;;86.75;48.83;;;;;;;5.04;100.00;99353.56;2074161;28;20240;-70
2022/03/16 03:01:34;;;;;;;84.13;47.58;;;;;;;5.02;100.00;99350.34;2074257;28;20758;-70
2022/03/16 03:02:41;;;;;;;86.30;47.72;;;;;;;5.01;100.00;99345.31;2074742;28;20641;-70
2022/03/16 03:03:45;;;;;;;90.72;48.20;;;;;;;5.00;100.00;99341.88;2074399;28;20227;-70
2022/03/16 03:04:55;;;;;;;81.18;48.08;;;;;;;4.97;100.00;99333.66;2074243;28;20280;-70
2022/03/16 03:05:59;;;;;;;95.60;50.13;;;;;;;4.95;100.00;99336.56;2073835;28;20670;-70
2022/03/16 03:07:05;;;;;;;91.13;49.47;;;;;;;4.95;100.00;99336.56;2074199;28;20596;-70
2022/03/16 03:08:07;;;;;;;87.55;48.90;;;;;;;4.94;100.00;99334.94;2074782;28;20215;-70
2022/03/16 03:09:14;;;;;;;90.50;50.45;;;;;;;4.94;100.00;99337.59;2074887;28;20529;-70
2022/03/16 03:10:19;;;;;;;90.50;49.33;;;;;;;4.95;100.00;99343.66;2073725;28;20226;-70
2022/03/16 03:11:27;;;;;;;94.80;50.53;;;;;;;4.96;100.00;99348.72;2073883;28;20204;-70
2022/03/16 03:12:35;;;;;;;88.65;50.08;;;;;;;4.98;100.00;99340.53;2073979;28;20551;-70
2022/03/16 03:13:39;;;;;;;88.53;50.03;;;;;;;4.97;100.00;99350.31;2066906;28;20609;-70
2022/03/16 03:14:40;;;;;;;86.88;50.58;;;;;;;4.98;100.00;99351.91;2074014;28;20283;-70
2022/03/16 03:15:48;;;;;;;87.10;50.15;;;;;;;5.00;100.00;99354.28;2074297;28;20239;-70
2022/03/16 03:16:56;;;;;;;93.03;50.97;;;;;;;5.00;100.00;99349.81;2073842;28;20554;-70
2022/03/16 03:18:04;;;;;;;95.90;50.75;;;;;;;4.99;100.00;99350.84;2073977;28;20202;-71
2022/03/16 03:19:07;;;;;;;88.00;50.05;;;;;;;5.02;100.00;99362.75;2074292;28;20204;-70
2022/03/16 03:20:16;;;;;;;86.30;50.17;;;;;;;5.02;100.00;99357.47;2073896;28;20200;-70
2022/03/16 03:21:18;;;;;;;99.85;53.58;;;;;;;5.03;100.00;99348.50;2073315;28;20227;-70
2022/03/16 03:22:21;;;;;;;93.38;51.45;;;;;;;5.03;100.00;99356.44;2074146;28;20188;-70
2022/03/16 03:23:27;;;;;;;90.60;50.75;;;;;;;5.06;100.00;99353.28;2074189;28;20232;-70
2022/03/16 03:24:34;;;;;;;98.00;50.22;;;;;;;5.06;99.98;99348.81;2074065;28;20267;-70
2022/03/16 03:25:39;;;;;;;90.85;51.55;;;;;;;5.08;99.68;99359.91;2074932;28;20208;-71
2022/03/16 03:26:44;;;;;;;84.88;49.97;;;;;;;5.10;99.40;99357.81;2073945;28;20208;-70
2022/03/16 03:27:48;;;;;;;92.55;50.40;;;;;;;5.09;100.00;99353.56;2074091;28;20275;-70
2022/03/16 03:28:52;;;;;;;88.40;49.13;;;;;;;5.08;100.00;99351.97;2074653;28;20196;-71
2022/03/16 03:29:57;;;;;;;92.20;49.47;;;;;;;5.10;100.00;99354.38;2074652;28;20275;-70
2022/03/16 03:31:00;;;;;;;95.63;50.67;;;;;;;5.10;100.00;99344.59;2074671;28;20200;-71
2022/03/16 03:32:08;;;;;;;85.80;48.38;;;;;;;5.10;100.00;99347.22;2074703;28;20192;-70
2022/03/16 03:33:15;;;;;;;94.45;50.40;;;;;;;5.12;100.00;99346.97;2073492;28;20223;-70
2022/03/16 03:34:23;;;;;;;83.13;49.28;;;;;;;5.16;100.00;99352.56;2073924;28;20212;-70
2022/03/16 03:35:27;;;;;;;94.80;49.80;;;;;;;5.22;99.37;99351.56;2074451;28;20246;-70
2022/03/16 03:36:30;;;;;;;94.97;50.72;;;;;;;5.25;99.38;99349.19;2074080;28;20311;-70
2022/03/16 03:37:36;;;;;;;87.70;49.30;;;;;;;5.34;98.47;99360.91;2074492;28;20208;-70
2022/03/16 03:38:44;;;;;;;97.70;52.33;;;;;;;5.40;98.27;99361.75;2074591;28;20655;-70
2022/03/16 03:39:54;;;;;;;90.75;49.83;;;;;;;5.45;97.82;99363.63;2073465;28;20271;-70
2022/03/16 03:40:58;;;;;;;92.47;50.88;;;;;;;5.44;97.49;99360.19;2073948;28;20196;-70
2022/03/16 03:42:00;;;;;;;90.97;49.63;;;;;;;5.44;98.02;99362.03;2073366;28;20219;-70
2022/03/16 03:43:03;;;;;;;89.20;48.92;;;;;;;5.44;97.58;99357.53;2074052;28;20271;-70
2022/03/16 03:44:11;;;;;;;90.68;49.85;;;;;;;5.44;98.04;99357.53;2074616;28;20184;-70
2022/03/16 03:45:16;;;;;;;97.90;50.15;;;;;;;5.46;98.09;99362.56;2073262;28;20200;-71
2022/03/16 03:46:22;;;;;;;87.70;49.92;;;;;;;5.45;97.66;99361.78;2066424;28;20722;-70
2022/03/16 03:47:27;;;;;;;92.82;49.03;;;;;;;5.45;97.80;99356.47;2073948;28;20189;-70
2022/03/16 03:48:34;;;;;;;89.15;51.17;;;;;;;5.42;98.49;99357.00;2074590;28;20215;-70
2022/03/16 03:49:37;;;;;;;94.90;48.33;;;;;;;5.40;98.19;99351.16;2074629;28;20263;-70
2022/03/16 03:50:46;;;;;;;90.55;49.35;;;;;;;5.43;98.61;99358.59;2074460;28;20216;-70
2022/03/16 03:51:51;;;;;;;87.15;50.40;;;;;;;5.45;97.99;99363.63;2073722;28;20579;-70
2022/03/16 03:52:58;;;;;;;89.13;49.30;;;;;;;5.45;97.22;99355.69;2074540;28;20216;-70
2022/03/16 03:54:03;;;;;;;92.75;49.80;;;;;;;5.45;97.89;99367.06;2074649;28;20203;-70
2022/03/16 03:55:12;;;;;;;86.65;49.50;;;;;;;5.44;97.84;99364.66;2081854;28;20195;-70
2022/03/16 03:56:16;;;;;;;89.65;48.03;;;;;;;5.42;98.35;99361.50;2081352;28;20176;-70
2022/03/16 03:57:18;;;;;;;90.90;48.95;;;;;;;5.39;99.36;99357.50;2073733;28;20189;-70
2022/03/16 03:58:23;;;;;;;91.20;50.75;;;;;;;5.39;99.74;99353.03;2066207;28;20204;-71
2022/03/16 03:59:27;;;;;;;96.55;50.58;;;;;;;5.37;99.86;99351.66;2073747;28;20242;-70
2022/03/16 04:00:33;;;;;;;88.85;49.08;;;;;;;5.36;100.00;99347.41;2074069;28;20683;-70
2022/03/16 04:01:37;;;;;;;89.05;49.08;;;;;;;5.34;100.00;99341.59;2073725;28;20215;-70
2022/03/16 04:02:40;;;;;;;86.72;49.25;;;;;;;5.29;100.00;99344.19;2074339;28;20250;-70
2022/03/16 04:03:41;;;;;;;79.50;47.95;;;;;;;5.27;100.00;99341.00;2073631;28;20197;-70
2022/03/16 04:04:45;;;;;;;94.93;49.10;;;;;;;5.29;100.00;99344.19;2065575;28;20205;-71
2022/03/16 04:05:50;;;;;;;92.00;49.20;;;;;;;5.26;100.00;99353.44;2073793;28;20564;-70
2022/03/16 04:06:57;;;;;;;86.90;50.28;;;;;;;5.23;100.00;99342.59;2074324;28;20212;-70
2022/03/16 04:08:01;;;;;;;87.95;49.55;;;;;;;5.22;100.00;99343.63;2073193;28;20227;-70
2022/03/16 04:09:07;;;;;;;89.53;49.35;;;;;;;5.19;100.00;99347.56;2066062;28;20201;-70
2022/03/16 04:10:15;;;;;;;93.13;51.25;;;;;;;5.18;100.00;99347.81;2073679;28;20245;-70
2022/03/16 04:11:17;;;;;;;91.22;50.90;;;;;;;5.17;100.00;99352.31;2074343;28;20671;-70
2022/03/16 04:12:18;;;;;;;85.38;50.22;;;;;;;5.15;100.00;99345.69;2065594;28;20719;-70
2022/03/16 04:13:22;;;;;;;83.43;49.10;;;;;;;5.15;100.00;99343.06;2065234;28;20567;-70
2022/03/16 04:14:27;;;;;;;86.43;48.95;;;;;;;5.14;100.00;99344.09;2066002;28;20205;-70
2022/03/16 04:15:33;;;;;;;88.03;48.75;;;;;;;5.14;100.00;99339.59;2073507;28;20211;-70
2022/03/16 04:16:38;;;;;;;88.88;48.15;;;;;;;5.17;100.00;99343.59;2074794;28;20222;-70
2022/03/16 04:17:42;;;;;;;87.88;48.58;;;;;;;5.24;100.00;99344.16;2074148;28;20208;-70
2022/03/16 04:18:45;;;;;;;84.05;46.22;;;;;;;5.28;100.00;99348.69;2073515;28;20295;-70
2022/03/16 04:19:50;;;;;;;93.53;46.90;;;;;;;5.46;100.00;99352.78;2074031;28;20691;-70
2022/03/16 04:20:53;;;;;;;83.18;47.35;;;;;;;5.53;100.00;99340.13;2065874;28;20572;-70
2022/03/16 04:21:59;;;;;;;94.93;48.65;;;;;;;5.54;100.00;99344.34;2073338;28;20635;-70
2022/03/16 04:23:04;;;;;;;91.53;47.45;;;;;;;5.52;100.00;99346.47;2074054;28;20231;-70
2022/03/16 04:24:13;;;;;;;85.85;47.00;;;;;;;5.52;100.00;99354.41;2081222;28;20207;-70
2022/03/16 04:25:18;;;;;;;105.45;48.67;;;;;;;5.51;100.00;99347.53;2080995;28;20172;-70
2022/03/16 04:26:20;;;;;;;95.18;46.83;;;;;;;5.52;100.00;99357.06;2072994;28;20223;-70
2022/03/16 04:27:27;;;;;;;84.70;47.60;;;;;;;5.50;100.00;99358.38;2065927;28;20622;-70
2022/03/16 04:28:33;;;;;;;93.70;48.50;;;;;;;5.47;100.00;99358.88;2073545;28;20235;-70
2022/03/16 04:29:36;;;;;;;92.15;48.05;;;;;;;5.45;100.00;99347.75;2073402;28;20685;-70
2022/03/16 04:30:45;;;;;;;85.00;48.05;;;;;;;5.43;100.00;99348.00;2073599;28;20691;-70
2022/03/16 04:31:49;;;;;;;87.68;48.65;;;;;;;5.40;100.00;99337.94;2081590;28;20200;-70
2022/03/16 04:32:54;;;;;;;96.38;50.33;;;;;;;5.38;100.00;99335.53;2081355;28;20294;-70
2022/03/16 04:33:57;;;;;;;86.65;49.10;;;;;;;5.36;100.00;99336.84;2081238;28;20249;-70
2022/03/16 04:35:01;;;;;;;86.90;47.92;;;;;;;5.32;100.00;99335.75;2081362;28;20262;-70
2022/03/16 04:36:08;;;;;;;91.03;48.55;;;;;;;5.29;100.00;99341.53;2072399;28;20266;-70
2022/03/16 04:37:16;;;;;;;86.88;48.00;;;;;;;5.31;100.00;99340.25;2073393;28;20255;-70
2022/03/16 04:38:25;;;;;;;84.95;47.85;;;;;;;5.30;100.00;99348.44;2073227;28;20661;-70
2022/03/16 04:39:29;;;;;;;89.38;48.00;;;;;;;5.29;100.00;99345.00;2073899;28;20267;-70
2022/03/16 04:40:36;;;;;;;80.13;44.70;;;;;;;5.29;100.00;99345.00;2074093;28;20677;-70
2022/03/16 04:41:42;;;;;;;78.18;45.25;;;;;;;5.34;100.00;99338.94;2074240;28;20213;-70
2022/03/16 04:42:49;;;;;;;90.93;46.28;;;;;;;5.34;100.00;99345.03;2074018;28;20206;-70
2022/03/16 04:43:55;;;;;;;78.97;45.00;;;;;;;5.36;100.00;99355.34;2074069;28;20659;-70
2022/03/16 04:44:59;;;;;;;86.05;46.28;;;;;;;5.37;100.00;99356.94;2074074;28;20191;-70
2022/03/16 04:46:04;;;;;;;80.95;45.63;;;;;;;5.37;100.00;99356.94;2072878;28;20231;-70
2022/03/16 04:47:06;;;;;;;83.28;48.22;;;;;;;5.36;100.00;99352.72;2073630;28;20193;-70
2022/03/16 04:48:08;;;;;;;91.45;47.47;;;;;;;5.36;100.00;99352.72;2073028;28;20661;-70
2022/03/16 04:49:09;;;;;;;89.18;48.63;;;;;;;5.36;100.00;99347.41;2073554;28;20196;-70
2022/03/16 04:50:17;;;;;;;84.63;47.57;;;;;;;5.35;100.00;99356.41;2074153;28;20192;-70
2022/03/16 04:51:25;;;;;;;89.10;49.55;;;;;;;5.31;100.00;99356.13;2073699;28;20224;-70
2022/03/16 04:52:28;;;;;;;86.50;47.15;;;;;;;5.34;100.00;99360.13;2074097;28;20223;-70
2022/03/16 04:53:35;;;;;;;82.43;47.40;;;;;;;5.33;100.00;99358.53;2073945;28;20547;-71
2022/03/16 04:54:37;;;;;;;83.07;46.72;;;;;;;5.32;100.00;99360.38;2074013;28;20195;-70
2022/03/16 04:55:41;;;;;;;85.55;47.80;;;;;;;5.32;100.00;99356.94;2073997;28;20242;-69
2022/03/16 04:56:50;;;;;;;80.43;47.88;;;;;;;5.31;100.00;99355.34;2073595;28;20211;-70
2022/03/16 04:57:57;;;;;;;100.50;49.90;;;;;;;5.32;100.00;99354.28;2073446;28;20212;-70
2022/03/16 04:59:03;;;;;;;91.65;49.13;;;;;;;5.29;100.00;99352.13;2073994;28;20195;-69
2022/03/16 05:00:12;;;;;;;86.82;48.22;;;;;;;5.28;100.00;99350.53;2073190;28;20206;-69
2022/03/16 05:01:16;;;;;;;83.82;48.17;;;;;;;5.29;100.00;99358.22;2073693;28;20251;-69
2022/03/16 05:02:18;;;;;;;82.15;45.63;;;;;;;5.30;100.00;99359.00;2073975;28;20196;-69